Time;durP1;ratioP1;P1;durP2;ratioP2;P2;SDS_P1;SDS_P2;PMS_P1;PMS_P2;Temp;Humidity;BMP_temperature;BMP_pressure;BME280_temperature;BME280_humidity;BME280_pressure;Samples;Min_cycle;Max_cycle;Signal;HPM_P1;HPM_P2
2023/08/05 00:01:36;;;;;;;5.07;2.65;;;15.60;90.80;;;;;;5038852;28;20086;-80
2023/08/05 00:04:01;;;;;;;5.95;2.58;;;15.50;91.10;;;;;;5038632;28;20049;-81
2023/08/05 00:06:28;;;;;;;7.20;2.28;;;15.50;91.30;;;;;;5011117;28;20045;-83
2023/08/05 00:08:54;;;;;;;5.38;2.63;;;15.50;91.50;;;;;;5043464;28;20056;-81
2023/08/05 00:11:20;;;;;;;5.90;2.47;;;15.50;91.80;;;;;;5026983;28;20041;-80
2023/08/05 00:13:46;;;;;;;4.93;2.53;;;15.40;92.00;;;;;;5058011;28;20037;-79
2023/08/05 00:16:14;;;;;;;5.57;2.90;;;15.50;92.20;;;;;;5041520;28;20084;-80
2023/08/05 00:18:42;;;;;;;4.88;3.00;;;15.40;92.50;;;;;;5047208;28;20045;-83
2023/08/05 00:21:08;;;;;;;5.38;3.15;;;15.50;92.70;;;;;;5030401;28;20110;-80
2023/08/05 00:23:37;;;;;;;5.00;3.30;;;15.50;92.90;;;;;;5045831;28;20041;-79
2023/08/05 00:26:08;;;;;;;5.57;3.13;;;15.50;93.20;;;;;;5028925;28;20055;-81
2023/08/05 00:28:40;;;;;;;5.80;3.35;;;15.50;93.40;;;;;;5043553;28;20076;-77
2023/08/05 00:31:09;;;;;;;5.93;3.50;;;15.50;93.60;;;;;;5014215;28;20049;-79
2023/08/05 00:33:35;;;;;;;5.82;3.40;;;15.60;93.90;;;;;;5018833;28;20028;-81
2023/08/05 00:36:00;;;;;;;5.57;3.15;;;15.60;94.10;;;;;;5042331;28;20043;-80
2023/08/05 00:38:28;;;;;;;7.00;3.13;;;15.60;94.20;;;;;;5041989;28;20098;-79
2023/08/05 00:40:53;;;;;;;9.23;4.20;;;15.60;94.40;;;;;;5030857;28;20488;-83
2023/08/05 00:43:19;;;;;;;6.22;3.20;;;15.60;94.60;;;;;;5018926;28;20564;-80
2023/08/05 00:45:45;;;;;;;5.80;3.17;;;15.60;94.70;;;;;;5032036;28;20041;-81
2023/08/05 00:48:11;;;;;;;8.32;3.70;;;15.60;94.80;;;;;;5030855;28;20562;-79
2023/08/05 00:50:39;;;;;;;7.22;4.10;;;15.60;95.00;;;;;;5044755;28;20045;-79
2023/08/05 00:53:05;;;;;;;6.75;3.90;;;15.60;95.20;;;;;;5044977;28;20052;-80
2023/08/05 00:55:31;;;;;;;7.43;4.25;;;15.60;95.40;;;;;;5026298;28;21322;-81
2023/08/05 00:57:57;;;;;;;7.97;3.47;;;15.60;95.50;;;;;;5054134;28;20149;-79
2023/08/05 01:00:23;;;;;;;5.90;3.78;;;15.50;95.60;;;;;;5028581;28;20135;-79
2023/08/05 01:02:49;;;;;;;8.00;3.95;;;15.60;95.80;;;;;;5022600;28;20044;-82
2023/08/05 01:05:14;;;;;;;6.70;4.10;;;15.60;95.90;;;;;;5008789;28;20044;-80
2023/08/05 01:07:42;;;;;;;7.60;3.80;;;15.70;96.00;;;;;;5006008;28;20040;-80
2023/08/05 01:10:09;;;;;;;7.60;3.63;;;15.60;96.10;;;;;;5019524;28;20401;-80
2023/08/05 01:12:34;;;;;;;7.75;4.22;;;15.70;96.30;;;;;;5020022;28;20053;-81
2023/08/05 01:15:00;;;;;;;7.20;4.25;;;15.60;96.40;;;;;;5018495;28;20100;-80
2023/08/05 01:17:26;;;;;;;11.45;4.20;;;15.60;96.50;;;;;;5001159;28;20045;-80
2023/08/05 01:19:52;;;;;;;6.97;3.80;;;15.60;96.70;;;;;;5003786;28;20056;-82
2023/08/05 01:22:20;;;;;;;8.02;4.03;;;15.70;96.90;;;;;;5003934;28;20037;-81
2023/08/05 01:25:04;;;;;;;9.15;4.20;;;15.70;97.00;;;;;;5003600;28;20054;-80
2023/08/05 01:27:33;;;;;;;7.13;4.10;;;15.70;97.20;;;;;;5003568;28;20855;-80
2023/08/05 01:29:58;;;;;;;10.95;3.95;;;15.70;97.20;;;;;;5004906;28;20632;-81
2023/08/05 01:32:25;;;;;;;7.85;4.53;;;15.70;97.20;;;;;;4987112;28;20112;-81
2023/08/05 01:34:52;;;;;;;8.77;4.50;;;15.70;97.20;;;;;;5001304;28;20103;-79
2023/08/05 01:37:17;;;;;;;8.77;4.22;;;15.70;97.20;;;;;;4982284;28;20045;-80
2023/08/05 01:39:44;;;;;;;6.75;4.10;;;15.80;97.30;;;;;;5001626;28;20041;-79
2023/08/05 01:42:11;;;;;;;8.80;4.15;;;15.80;97.30;;;;;;5038203;28;20052;-82
2023/08/05 01:44:36;;;;;;;7.90;5.05;;;15.80;97.30;;;;;;5060075;28;20423;-81
2023/08/05 01:47:02;;;;;;;7.32;4.10;;;15.80;97.30;;;;;;5024165;28;20066;-81
2023/08/05 01:49:28;;;;;;;6.50;4.57;;;15.80;97.30;;;;;;5039755;28;20116;-80
2023/08/05 01:51:55;;;;;;;6.78;4.10;;;15.80;97.30;;;;;;5009380;28;20118;-80
2023/08/05 01:54:21;;;;;;;9.45;4.55;;;15.80;97.30;;;;;;5042048;28;20505;-80
2023/08/05 01:56:53;;;;;;;6.70;4.07;;;15.80;97.30;;;;;;5040916;28;20070;-79
2023/08/05 01:59:19;;;;;;;7.95;4.07;;;15.80;97.30;;;;;;5026155;28;20028;-80
2023/08/05 02:01:46;;;;;;;6.88;3.95;;;15.80;97.40;;;;;;5022462;28;20576;-81
2023/08/05 02:04:15;;;;;;;6.35;4.25;;;15.80;97.40;;;;;;5055049;28;20053;-81
2023/08/05 02:06:41;;;;;;;7.22;4.40;;;15.80;97.40;;;;;;5023060;28;20111;-81
2023/08/05 02:09:07;;;;;;;8.90;4.30;;;15.80;97.40;;;;;;5006607;28;20176;-80
2023/08/05 02:11:39;;;;;;;7.47;4.10;;;15.80;97.50;;;;;;5073125;28;20133;-80
2023/08/05 02:14:05;;;;;;;5.35;3.60;;;15.80;97.60;;;;;;5021511;28;20113;-81
2023/08/05 02:16:35;;;;;;;8.02;4.25;;;15.80;97.60;;;;;;5023725;28;20036;-82
2023/08/05 02:19:01;;;;;;;6.90;4.50;;;15.80;97.60;;;;;;5025910;28;20060;-82
2023/08/05 02:21:26;;;;;;;6.47;4.03;;;15.80;97.70;;;;;;5025850;28;20044;-84
2023/08/05 02:23:52;;;;;;;10.68;4.32;;;15.80;97.70;;;;;;5037072;28;20053;-81
2023/08/05 02:26:19;;;;;;;9.25;3.80;;;15.80;97.80;;;;;;5041093;28;20135;-80
2023/08/05 02:28:47;;;;;;;8.30;3.70;;;15.80;97.90;;;;;;5041963;28;20140;-81
2023/08/05 02:31:14;;;;;;;6.90;3.75;;;15.80;97.80;;;;;;5020177;28;20049;-80
2023/08/05 02:33:39;;;;;;;8.35;3.60;;;15.80;97.80;;;;;;5038682;28;20052;-80
2023/08/05 02:36:06;;;;;;;5.32;3.47;;;15.80;97.90;;;;;;5021108;28;20045;-80
2023/08/05 02:38:32;;;;;;;4.68;3.50;;;15.80;97.90;;;;;;5037935;28;20052;-84
2023/08/05 02:40:58;;;;;;;10.77;3.97;;;15.80;97.90;;;;;;5024341;28;20052;-79
2023/08/05 02:43:24;;;;;;;6.30;3.88;;;15.80;98.00;;;;;;5010308;28;20416;-81
2023/08/05 02:45:57;;;;;;;8.35;3.88;;;15.80;98.00;;;;;;5040622;28;20049;-83
2023/08/05 02:48:24;;;;;;;6.50;3.95;;;15.80;98.10;;;;;;5060806;28;20048;-81
2023/08/05 02:50:51;;;;;;;8.18;4.00;;;15.80;98.10;;;;;;5040780;28;20458;-80
2023/08/05 02:53:17;;;;;;;12.23;4.47;;;15.80;98.20;;;;;;5041036;28;20053;-81
2023/08/05 02:55:43;;;;;;;12.93;4.18;;;15.80;98.30;;;;;;5028230;28;20392;-81
2023/08/05 02:58:09;;;;;;;7.97;3.85;;;15.80;98.40;;;;;;5030297;28;20053;-80
2023/08/05 03:00:35;;;;;;;7.63;3.58;;;15.80;98.40;;;;;;5059190;28;20056;-80
2023/08/05 03:03:02;;;;;;;7.30;4.10;;;15.80;98.50;;;;;;5027049;28;20044;-80
2023/08/05 03:05:28;;;;;;;6.60;4.20;;;15.70;98.60;;;;;;5057701;28;20087;-82
2023/08/05 03:07:54;;;;;;;7.70;4.10;;;15.80;98.80;;;;;;5043281;28;20778;-80
2023/08/05 03:10:20;;;;;;;11.07;4.55;;;15.80;99.00;;;;;;5043276;28;20036;-81
2023/08/05 03:13:13;;;;;;;6.32;4.28;;;15.80;99.10;;;;;;5026631;28;20049;-83
2023/08/05 03:15:54;;;;;;;7.30;3.78;;;15.80;99.30;;;;;;5023390;28;20768;-81
2023/08/05 03:18:21;;;;;;;7.65;3.65;;;15.80;99.40;;;;;;5006357;28;20057;-81
2023/08/05 03:21:07;;;;;;;6.13;3.75;;;15.80;99.60;;;;;;5008811;28;20049;-82
2023/08/05 03:23:33;;;;;;;9.00;3.88;;;15.80;99.90;;;;;;5005404;28;20060;-82
2023/08/05 03:26:32;;;;;;;7.97;4.03;;;15.80;99.90;;;;;;4991693;28;20037;-80
2023/08/05 03:28:58;;;;;;;5.43;3.92;;;15.70;99.90;;;;;;5036917;28;20061;-80
2023/08/05 03:31:47;;;;;;;6.20;4.10;;;15.70;99.90;;;;;;5020721;28;20111;-81
2023/08/05 03:34:13;;;;;;;5.82;3.85;;;15.70;99.90;;;;;;5025390;28;20081;-81
2023/08/05 03:36:48;;;;;;;6.60;3.47;;;15.70;99.90;;;;;;5021115;28;20045;-81
2023/08/05 03:39:14;;;;;;;8.18;3.75;;;15.70;99.90;;;;;;5038902;28;20122;-81
2023/08/05 03:41:40;;;;;;;5.57;3.63;;;15.30;99.90;;;;;;5001479;28;20111;-80
2023/08/05 03:44:06;;;;;;;9.52;3.63;;;15.60;99.90;;;;;;5015602;28;20048;-82
2023/08/05 03:46:31;;;;;;;6.38;3.38;;;15.60;99.90;;;;;;5026181;28;20052;-80
2023/08/05 03:48:57;;;;;;;6.53;3.65;;;15.60;99.90;;;;;;5043289;28;20052;-81
2023/08/05 03:51:32;;;;;;;8.38;3.90;;;15.60;99.90;;;;;;5013151;28;20058;-82
2023/08/05 03:53:58;;;;;;;5.50;3.78;;;15.50;99.90;;;;;;5037397;28;20114;-81
2023/08/05 03:56:26;;;;;;;8.98;3.90;;;15.50;99.90;;;;;;5037617;28;20186;-81
2023/08/05 03:58:57;;;;;;;7.07;4.07;;;15.50;99.90;;;;;;5023376;28;20135;-82
2023/08/05 04:01:24;;;;;;;9.98;4.00;;;15.50;99.90;;;;;;5010782;28;20068;-80
2023/08/05 04:03:50;;;;;;;5.40;3.80;;;15.50;99.90;;;;;;5038450;28;20064;-82
2023/08/05 04:06:20;;;;;;;10.57;3.90;;;15.50;99.90;;;;;;5038631;28;20083;-80
2023/08/05 04:08:48;;;;;;;6.55;4.20;;;15.50;99.90;;;;;;5042914;28;20086;-83
2023/08/05 04:11:14;;;;;;;6.40;3.80;;;15.50;99.90;;;;;;5024192;28;20063;-84
2023/08/05 04:13:40;;;;;;;5.88;3.60;;;15.50;99.90;;;;;;5026384;28;20040;-83
2023/08/05 04:16:08;;;;;;;7.88;3.50;;;15.50;99.90;;;;;;5035571;28;20052;-82
2023/08/05 04:18:36;;;;;;;8.75;4.18;;;15.50;99.90;;;;;;5022933;28;20066;-84
2023/08/05 04:21:10;;;;;;;9.02;3.70;;;15.50;99.90;;;;;;5038927;28;20079;-82
2023/08/05 04:23:36;;;;;;;7.15;4.20;;;15.50;99.90;;;;;;5025747;28;20388;-84
2023/08/05 04:26:05;;;;;;;7.78;3.80;;;15.50;99.90;;;;;;5026634;28;20041;-83
2023/08/05 04:28:31;;;;;;;7.63;3.83;;;15.40;99.90;;;;;;5009139;28;20044;-82
2023/08/05 04:30:59;;;;;;;6.68;3.53;;;15.50;99.90;;;;;;5002633;28;20052;-84
2023/08/05 04:33:25;;;;;;;7.65;4.10;;;15.50;99.90;;;;;;5021405;28;20530;-83
2023/08/05 04:35:51;;;;;;;9.77;4.13;;;15.50;99.90;;;;;;5036485;28;20076;-82
2023/08/05 04:38:17;;;;;;;7.15;4.18;;;15.50;99.90;;;;;;5020872;28;20059;-83
2023/08/05 04:40:43;;;;;;;7.10;4.10;;;15.50;99.90;;;;;;5037947;28;20045;-83
2023/08/05 04:43:11;;;;;;;8.35;4.18;;;15.50;99.90;;;;;;5036585;28;20068;-84
2023/08/05 04:45:37;;;;;;;6.70;4.20;;;15.50;99.90;;;;;;4990352;28;20048;-84
2023/08/05 04:48:05;;;;;;;7.10;3.80;;;15.50;99.90;;;;;;5035865;28;20094;-82
2023/08/05 04:50:30;;;;;;;6.85;3.75;;;15.60;99.90;;;;;;5021736;28;20118;-84
2023/08/05 04:53:06;;;;;;;8.90;3.78;;;15.60;99.90;;;;;;5055956;28;20044;-82
2023/08/05 04:55:32;;;;;;;7.53;3.95;;;15.60;99.90;;;;;;5067577;28;20060;-82
2023/08/05 04:58:05;;;;;;;8.60;3.38;;;15.60;99.90;;;;;;5034639;28;20133;-81
2023/08/05 05:00:32;;;;;;;7.75;4.15;;;15.60;99.90;;;;;;5055196;28;20461;-83
2023/08/05 05:02:58;;;;;;;9.35;4.10;;;15.60;99.90;;;;;;5039442;28;20063;-82
2023/08/05 05:05:25;;;;;;;8.02;3.80;;;15.60;99.90;;;;;;5039747;28;20052;-82
2023/08/05 05:07:50;;;;;;;6.85;3.85;;;15.60;99.90;;;;;;5034451;28;20056;-82
2023/08/05 05:10:17;;;;;;;6.63;3.63;;;15.60;99.90;;;;;;5022810;28;20053;-81
2023/08/05 05:12:43;;;;;;;5.72;3.75;;;15.70;99.90;;;;;;5021812;28;20170;-84
2023/08/05 05:15:09;;;;;;;7.55;3.55;;;15.70;99.90;;;;;;5007376;28;20048;-83
2023/08/05 05:17:36;;;;;;;6.65;3.53;;;15.70;99.90;;;;;;5023725;28;20572;-84
2023/08/05 05:20:04;;;;;;;5.80;4.00;;;15.70;99.90;;;;;;5021685;28;20419;-84
2023/08/05 05:22:30;;;;;;;6.72;3.78;;;15.70;99.90;;;;;;5020465;28;20076;-82
2023/08/05 05:24:56;;;;;;;9.00;3.72;;;15.80;99.90;;;;;;5022695;28;20343;-84
2023/08/05 05:27:22;;;;;;;10.07;3.78;;;15.80;99.90;;;;;;5056631;28;20045;-86
2023/08/05 05:29:48;;;;;;;8.05;4.07;;;15.80;99.90;;;;;;5039843;28;20049;-84
2023/08/05 05:32:13;;;;;;;5.28;3.60;;;15.90;99.90;;;;;;5070916;28;20043;-85
2023/08/05 05:34:39;;;;;;;7.68;4.00;;;15.90;99.90;;;;;;5039645;28;20047;-81
2023/08/05 05:37:05;;;;;;;8.13;4.03;;;16.40;99.90;;;;;;5012042;28;20341;-86
2023/08/05 05:39:32;;;;;;;7.43;3.85;;;16.00;99.90;;;;;;5035922;28;20380;-82
2023/08/05 05:41:58;;;;;;;7.75;3.55;;;16.10;99.90;;;;;;5039887;28;20040;-85
2023/08/05 05:44:25;;;;;;;6.35;3.63;;;16.10;99.90;;;;;;5038057;28;20040;-84
2023/08/05 05:46:51;;;;;;;8.38;3.80;;;16.10;99.90;;;;;;5021321;28;20498;-86
2023/08/05 05:49:18;;;;;;;5.18;3.10;;;16.20;99.90;;;;;;5007551;28;20176;-83
2023/08/05 05:51:45;;;;;;;9.07;3.53;;;16.20;99.90;;;;;;5040333;28;20121;-86
2023/08/05 05:54:12;;;;;;;4.43;3.22;;;16.30;99.90;;;;;;5006040;28;20053;-86
2023/08/05 05:56:37;;;;;;;4.57;2.95;;;16.30;99.90;;;;;;5006796;28;20102;-86
2023/08/05 05:59:04;;;;;;;7.03;3.17;;;16.30;99.90;;;;;;5007924;28;20078;-87
2023/08/05 06:01:36;;;;;;;7.40;3.50;;;16.40;99.90;;;;;;5040335;28;20482;-86
2023/08/05 06:04:04;;;;;;;6.25;3.38;;;16.40;99.90;;;;;;5037277;28;20048;-84
2023/08/05 06:06:30;;;;;;;6.30;2.92;;;16.40;99.90;;;;;;5024292;28;20139;-85
2023/08/05 06:08:57;;;;;;;4.45;3.17;;;16.50;99.90;;;;;;5037803;28;20045;-82
2023/08/05 06:11:24;;;;;;;7.28;3.30;;;16.40;99.90;;;;;;5005919;28;20052;-81
2023/08/05 06:13:49;;;;;;;7.10;3.10;;;16.50;99.90;;;;;;5020181;28;20087;-82
2023/08/05 06:16:15;;;;;;;5.90;3.25;;;16.50;99.90;;;;;;5022696;28;20049;-83
2023/08/05 06:18:41;;;;;;;5.93;3.50;;;16.50;99.90;;;;;;5036446;28;20271;-82
2023/08/05 06:21:06;;;;;;;4.65;2.90;;;16.60;99.90;;;;;;5041839;28;20049;-83
2023/08/05 06:23:32;;;;;;;5.15;3.10;;;16.70;99.90;;;;;;5023884;28;20045;-82
2023/08/05 06:26:05;;;;;;;6.82;3.00;;;16.70;99.90;;;;;;5041375;28;20182;-78
2023/08/05 06:28:30;;;;;;;6.10;2.80;;;16.80;99.90;;;;;;5024444;28;20051;-80
2023/08/05 06:30:56;;;;;;;3.88;2.75;;;16.80;99.90;;;;;;5037998;28;20044;-79
2023/08/05 06:33:22;;;;;;;8.63;3.00;;;16.90;99.90;;;;;;5041669;28;20068;-80
2023/08/05 06:35:47;;;;;;;6.85;3.03;;;17.00;99.90;;;;;;5041955;28;20033;-80
2023/08/05 06:38:17;;;;;;;5.72;2.78;;;17.00;99.90;;;;;;5040233;28;20160;-80
2023/08/05 06:40:45;;;;;;;5.93;2.40;;;17.10;99.90;;;;;;5043453;28;20055;-79
2023/08/05 06:43:10;;;;;;;5.35;2.75;;;17.20;99.90;;;;;;5042612;28;20546;-79
2023/08/05 06:45:36;;;;;;;5.95;2.47;;;17.20;99.90;;;;;;5044644;28;20119;-79
2023/08/05 06:48:02;;;;;;;6.07;2.90;;;17.30;99.90;;;;;;5046963;28;20467;-80
2023/08/05 06:50:28;;;;;;;5.28;2.50;;;17.30;99.90;;;;;;5014343;28;20102;-80
2023/08/05 06:52:53;;;;;;;5.28;2.30;;;17.40;99.90;;;;;;5011991;28;20145;-80
2023/08/05 06:55:19;;;;;;;4.85;2.92;;;17.40;99.90;;;;;;5027602;28;20131;-80
2023/08/05 06:57:48;;;;;;;9.63;2.80;;;17.40;99.90;;;;;;5043962;28;20048;-80
2023/08/05 07:00:16;;;;;;;5.97;2.92;;;17.50;99.90;;;;;;5049126;28;20048;-80
2023/08/05 07:02:48;;;;;;;5.82;2.83;;;17.50;99.90;;;;;;5014236;28;20048;-79
2023/08/05 07:05:14;;;;;;;6.63;2.78;;;17.60;99.90;;;;;;5024722;28;20051;-80
2023/08/05 07:07:39;;;;;;;4.95;2.10;;;17.60;99.90;;;;;;5041494;28;20052;-79
2023/08/05 07:10:08;;;;;;;7.30;2.47;;;17.60;99.80;;;;;;5009255;28;20182;-79
2023/08/05 07:12:34;;;;;;;4.28;2.55;;;17.90;99.80;;;;;;5040570;28;20108;-80
2023/08/05 07:15:00;;;;;;;5.43;3.28;;;17.60;99.70;;;;;;5045612;28;20484;-79
2023/08/05 07:17:26;;;;;;;5.75;2.42;;;17.70;99.60;;;;;;5016773;28;20051;-79
2023/08/05 07:19:52;;;;;;;4.25;2.53;;;17.70;99.60;;;;;;5043557;28;20425;-79
2023/08/05 07:22:17;;;;;;;9.65;3.00;;;18.10;99.70;;;;;;5042920;28;20055;-79
2023/08/05 07:24:43;;;;;;;5.35;3.10;;;17.70;99.50;;;;;;5046166;28;20059;-79
2023/08/05 07:27:09;;;;;;;5.40;2.63;;;17.70;99.50;;;;;;5043729;28;20714;-76
2023/08/05 07:29:37;;;;;;;7.07;2.78;;;17.80;99.60;;;;;;5031788;28;20036;-76
2023/08/05 07:32:06;;;;;;;5.05;2.50;;;17.80;99.70;;;;;;5047049;28;20057;-77
2023/08/05 07:34:32;;;;;;;6.57;2.63;;;17.80;99.70;;;;;;5028206;28;20074;-80
2023/08/05 07:37:01;;;;;;;6.28;2.78;;;17.90;99.80;;;;;;5029519;28;20056;-78
2023/08/05 07:39:33;;;;;;;6.10;2.92;;;17.90;99.70;;;;;;5040888;28;20136;-78
2023/08/05 07:42:00;;;;;;;6.22;2.92;;;18.00;99.60;;;;;;5041519;28;20052;-78
2023/08/05 07:44:26;;;;;;;4.93;2.70;;;18.00;99.60;;;;;;5040367;28;20079;-83
2023/08/05 07:46:53;;;;;;;5.22;2.80;;;18.10;99.60;;;;;;5054089;28;20937;-82
2023/08/05 07:49:19;;;;;;;5.15;3.45;;;18.10;99.40;;;;;;5070762;28;20135;-85
2023/08/05 07:51:48;;;;;;;6.53;3.15;;;18.10;99.10;;;;;;5040684;28;20491;-84
2023/08/05 07:54:15;;;;;;;5.57;2.78;;;18.10;98.80;;;;;;5041046;28;20048;-83
2023/08/05 07:56:42;;;;;;;7.63;3.05;;;18.20;98.60;;;;;;5044171;28;20066;-79
2023/08/05 07:59:27;;;;;;;4.25;2.50;;;18.20;98.20;;;;;;5026233;28;20510;-80
2023/08/05 08:01:57;;;;;;;5.03;2.75;;;17.90;97.90;;;;;;5045999;28;20050;-81
2023/08/05 08:04:23;;;;;;;4.72;2.95;;;18.40;97.90;;;;;;5057815;28;20591;-80
2023/08/05 08:06:49;;;;;;;5.00;2.60;;;18.40;97.30;;;;;;5055815;28;20044;-82
2023/08/05 08:09:14;;;;;;;7.72;2.75;;;18.40;96.80;;;;;;5024782;28;20052;-82
2023/08/05 08:11:41;;;;;;;5.38;2.63;;;18.50;96.50;;;;;;5027237;28;20553;-83
2023/08/05 08:14:07;;;;;;;9.32;2.88;;;18.50;96.30;;;;;;5026597;28;20063;-81
2023/08/05 08:16:33;;;;;;;5.43;2.63;;;18.60;96.10;;;;;;5044504;28;20045;-83
2023/08/05 08:18:59;;;;;;;6.85;2.80;;;18.60;96.00;;;;;;5023292;28;20045;-82
2023/08/05 08:21:25;;;;;;;7.88;2.80;;;18.70;95.90;;;;;;5039516;28;20048;-82
2023/08/05 08:23:50;;;;;;;5.65;2.70;;;18.70;95.60;;;;;;5024389;28;20056;-83
2023/08/05 08:26:16;;;;;;;6.68;2.80;;;18.70;95.40;;;;;;5039796;28;20041;-81
2023/08/05 08:28:42;;;;;;;4.40;2.80;;;18.70;95.30;;;;;;5027313;28;20060;-82
2023/08/05 08:31:08;;;;;;;5.32;2.80;;;18.70;95.10;;;;;;5011665;28;20076;-81
2023/08/05 08:33:34;;;;;;;4.68;2.80;;;18.80;95.00;;;;;;5023893;28;20087;-82
2023/08/05 08:36:00;;;;;;;5.93;2.90;;;18.80;94.90;;;;;;5028815;28;20051;-83
2023/08/05 08:38:25;;;;;;;4.63;2.83;;;18.90;94.70;;;;;;5045513;28;20044;-83
2023/08/05 08:40:57;;;;;;;5.18;2.80;;;18.90;94.40;;;;;;5042017;28;20133;-82
2023/08/05 08:43:29;;;;;;;6.25;3.20;;;19.10;94.20;;;;;;5011525;28;20114;-82
2023/08/05 08:45:55;;;;;;;5.05;2.63;;;19.20;93.80;;;;;;5039486;28;20625;-82
2023/08/05 08:48:23;;;;;;;6.07;2.50;;;19.30;93.40;;;;;;5058746;28;20071;-82
2023/08/05 08:50:52;;;;;;;5.32;2.47;;;19.40;93.10;;;;;;5041584;28;20702;-82
2023/08/05 08:53:20;;;;;;;5.68;2.75;;;19.40;92.80;;;;;;5045194;28;20037;-82
2023/08/05 08:55:47;;;;;;;7.18;2.85;;;19.40;92.30;;;;;;5008884;28;20101;-82
2023/08/05 08:58:13;;;;;;;3.92;2.50;;;19.40;92.10;;;;;;5041969;28;20044;-82
2023/08/05 09:00:39;;;;;;;4.68;2.90;;;19.40;92.20;;;;;;5057304;28;20066;-83
2023/08/05 09:03:07;;;;;;;6.55;2.53;;;19.30;91.90;;;;;;4996789;28;20041;-82
2023/08/05 09:05:45;;;;;;;6.07;2.45;;;19.30;91.70;;;;;;5057944;28;20036;-82
2023/08/05 09:08:11;;;;;;;6.38;2.88;;;19.30;91.40;;;;;;5039926;28;20151;-82
2023/08/05 09:10:37;;;;;;;5.85;2.78;;;19.30;91.50;;;;;;5040709;28;20483;-82
2023/08/05 09:13:05;;;;;;;4.22;2.80;;;19.20;91.50;;;;;;5073365;28;20049;-83
2023/08/05 09:15:36;;;;;;;4.15;2.15;;;19.30;91.30;;;;;;5008164;28;20272;-83
2023/08/05 09:18:04;;;;;;;5.72;2.78;;;19.30;91.40;;;;;;5044735;28;20060;-82
2023/08/05 09:20:34;;;;;;;5.70;2.38;;;19.40;91.30;;;;;;5027359;28;20121;-83
2023/08/05 09:23:03;;;;;;;5.00;2.42;;;19.50;90.90;;;;;;5010283;28;20488;-82
2023/08/05 09:25:33;;;;;;;5.82;2.63;;;19.60;90.70;;;;;;5026590;28;20190;-83
2023/08/05 09:28:04;;;;;;;7.70;2.72;;;19.60;90.30;;;;;;5040372;28;20128;-82
2023/08/05 09:30:30;;;;;;;4.20;2.90;;;19.60;90.10;;;;;;5041698;28;20052;-82
2023/08/05 09:32:56;;;;;;;6.05;2.80;;;19.60;89.40;;;;;;5055740;28;20396;-82
2023/08/05 09:35:24;;;;;;;5.68;3.08;;;19.80;88.60;;;;;;5026534;28;20061;-83
2023/08/05 09:37:52;;;;;;;4.88;2.90;;;20.10;87.40;;;;;;5040110;28;20057;-83
2023/08/05 09:40:26;;;;;;;3.78;2.72;;;20.30;85.90;;;;;;5042078;28;20041;-82
2023/08/05 09:42:54;;;;;;;5.93;2.83;;;20.70;83.00;;;;;;5025280;28;20040;-82
2023/08/05 09:45:21;;;;;;;5.05;2.90;;;21.00;81.50;;;;;;5027325;28;20503;-83
2023/08/05 09:47:49;;;;;;;6.45;2.72;;;21.20;78.00;;;;;;5038734;28;20147;-83
2023/08/05 09:50:18;;;;;;;5.72;2.90;;;21.40;75.50;;;;;;5045406;28;20041;-82
2023/08/05 09:52:44;;;;;;;6.18;2.97;;;21.90;73.00;;;;;;5028427;28;20432;-83
2023/08/05 09:55:14;;;;;;;4.05;2.55;;;22.30;69.30;;;;;;5046909;28;20041;-83
2023/08/05 09:57:42;;;;;;;4.55;2.72;;;22.50;65.80;;;;;;5047952;28;20445;-83
2023/08/05 10:00:12;;;;;;;4.88;2.80;;;22.70;63.80;;;;;;5049310;28;20399;-83
2023/08/05 10:02:42;;;;;;;5.32;2.90;;;22.80;62.90;;;;;;5031639;28;20060;-84
2023/08/05 10:05:14;;;;;;;5.97;2.80;;;22.90;60.20;;;;;;5032547;28;20060;-83
2023/08/05 10:07:42;;;;;;;3.92;2.50;;;22.90;59.00;;;;;;5028670;28;20554;-83
2023/08/05 10:10:14;;;;;;;3.83;2.60;;;22.90;61.20;;;;;;5033077;28;20527;-84
2023/08/05 10:12:51;;;;;;;6.43;2.65;;;22.80;61.10;;;;;;5031316;28;20049;-83
2023/08/05 10:15:30;;;;;;;4.35;2.58;;;22.60;53.40;;;;;;5027999;28;20225;-84
2023/08/05 10:17:57;;;;;;;3.88;2.30;;;22.50;51.60;;;;;;5032917;28;20400;-83
2023/08/05 10:20:25;;;;;;;3.70;2.15;;;22.40;56.50;;;;;;5032066;28;20067;-82
2023/08/05 10:23:17;;;;;;;3.22;2.13;;;22.30;54.90;;;;;;5029273;28;20415;-83
2023/08/05 10:25:46;;;;;;;4.22;2.58;;;22.30;47.00;;;;;;5045126;28;20418;-83
2023/08/05 10:28:25;;;;;;;3.97;2.55;;;22.20;53.00;;;;;;5061890;28;20101;-83
2023/08/05 10:30:51;;;;;;;;;;;22.20;50.50;;;;;;5032506;28;20396;-84
2023/08/05 10:33:18;;;;;;;3.47;2.28;;;22.10;45.80;;;;;;5075638;28;19925;-83
2023/08/05 10:35:44;;;;;;;3.13;2.40;;;22.10;52.40;;;;;;5047380;28;20076;-83
2023/08/05 10:38:30;;;;;;;7.13;2.42;;;22.00;49.30;;;;;;5042986;28;20151;-82
2023/08/05 10:41:02;;;;;;;3.67;2.40;;;22.00;49.40;;;;;;5029231;28;20441;-83
2023/08/05 10:43:31;;;;;;;2.60;2.10;;;22.00;49.80;;;;;;5031729;28;20823;-82
2023/08/05 10:46:17;;;;;;;4.10;2.30;;;22.00;47.10;;;;;;5040608;28;20554;-82
2023/08/05 10:48:49;;;;;;;3.97;2.33;;;22.00;44.40;;;;;;5042176;28;20040;-83
2023/08/05 10:51:19;;;;;;;4.00;2.35;;;22.10;48.40;;;;;;5030781;28;20099;-83
2023/08/05 10:53:51;;;;;;;4.40;2.90;;;22.20;46.30;;;;;;5030528;28;20112;-83
2023/08/05 10:56:18;;;;;;;4.28;2.63;;;22.20;43.90;;;;;;5042716;28;20048;-84
2023/08/05 10:58:52;;;;;;;4.97;2.50;;;22.20;42.90;;;;;;5030060;28;20487;-83
2023/08/05 11:01:18;;;;;;;4.18;2.30;;;22.30;44.10;;;;;;5042904;28;20668;-84
2023/08/05 11:03:56;;;;;;;2.97;2.15;;;22.50;42.90;;;;;;5064053;28;20044;-84
2023/08/05 11:06:24;;;;;;;4.75;2.50;;;22.60;38.50;;;;;;5030465;28;20491;-83
2023/08/05 11:08:50;;;;;;;4.00;2.33;;;22.50;39.40;;;;;;5027615;28;20095;-83
2023/08/05 11:11:17;;;;;;;3.80;2.13;;;22.50;37.60;;;;;;5060104;28;20048;-83
2023/08/05 11:13:47;;;;;;;2.72;2.15;;;22.40;36.30;;;;;;5015475;28;20102;-83
2023/08/05 11:16:14;;;;;;;4.15;2.60;;;22.20;35.90;;;;;;5029310;28;20212;-83
2023/08/05 11:18:56;;;;;;;3.42;2.17;;;22.10;39.20;;;;;;5075718;28;20052;-83
2023/08/05 11:21:22;;;;;;;4.60;2.40;;;21.90;40.30;;;;;;5043728;28;20052;-83
2023/08/05 11:23:47;;;;;;;3.05;2.35;;;21.70;42.60;;;;;;5000072;28;20130;-82
2023/08/05 11:26:14;;;;;;;3.63;2.10;;;21.60;43.90;;;;;;5027355;28;20443;-82
2023/08/05 11:28:46;;;;;;;4.40;2.50;;;21.50;44.40;;;;;;5030262;28;20050;-83
2023/08/05 11:31:30;;;;;;;3.65;2.08;;;21.40;45.20;;;;;;5046712;28;20370;-83
2023/08/05 11:33:56;;;;;;;3.78;2.30;;;21.40;46.20;;;;;;5049829;28;20036;-83
2023/08/05 11:36:25;;;;;;;6.13;2.72;;;21.40;47.60;;;;;;5012823;28;20094;-82
2023/08/05 11:38:51;;;;;;;4.03;2.40;;;21.40;48.00;;;;;;5045028;28;20043;-82
2023/08/05 11:41:17;;;;;;;5.45;2.60;;;21.40;47.50;;;;;;5028132;28;20395;-82
2023/08/05 11:43:43;;;;;;;3.40;2.70;;;21.30;45.60;;;;;;5062651;28;20041;-83
2023/08/05 11:46:31;;;;;;;4.10;2.40;;;21.30;45.60;;;;;;5031242;28;20601;-83
2023/08/05 11:49:11;;;;;;;5.13;2.78;;;21.30;47.00;;;;;;5027686;28;20040;-83
2023/08/05 11:51:48;;;;;;;3.90;2.83;;;21.30;48.80;;;;;;5057515;28;20135;-83
2023/08/05 11:54:29;;;;;;;3.25;2.60;;;21.30;49.30;;;;;;5030913;28;20049;-83
2023/08/05 11:56:56;;;;;;;4.85;2.60;;;21.20;48.70;;;;;;5030999;28;20049;-82
2023/08/05 11:59:45;;;;;;;3.20;2.75;;;21.10;50.60;;;;;;5030939;28;20036;-82
2023/08/05 12:02:12;;;;;;;4.75;2.40;;;21.10;50.40;;;;;;5061111;28;20048;-82
2023/08/05 12:04:45;;;;;;;3.97;2.28;;;21.00;51.90;;;;;;5043298;28;20052;-83
2023/08/05 12:07:19;;;;;;;3.35;2.50;;;20.90;51.60;;;;;;5049807;28;20067;-80
2023/08/05 12:10:02;;;;;;;5.55;3.05;;;20.90;52.30;;;;;;5038144;28;20044;-79
2023/08/05 12:12:28;;;;;;;3.35;2.80;;;20.80;52.50;;;;;;5041426;28;20175;-81
2023/08/05 12:15:14;;;;;;;5.13;2.88;;;20.70;52.90;;;;;;5021810;28;20062;-80
2023/08/05 12:17:51;;;;;;;4.70;3.00;;;20.60;54.20;;;;;;5029765;28;20055;-81
2023/08/05 12:20:23;;;;;;;4.22;2.90;;;20.60;56.40;;;;;;5032494;28;20059;-80
2023/08/05 12:22:49;;;;;;;5.53;2.95;;;20.50;58.60;;;;;;5042766;28;20394;-80
2023/08/05 12:25:16;;;;;;;4.43;2.88;;;20.40;60.00;;;;;;5045189;28;20719;-81
2023/08/05 12:27:42;;;;;;;5.20;3.78;;;20.40;60.70;;;;;;5059968;28;20040;-81
2023/08/05 12:30:09;;;;;;;4.57;3.35;;;20.40;61.30;;;;;;5023376;28;20044;-81
2023/08/05 12:32:35;;;;;;;4.35;2.95;;;20.30;62.00;;;;;;5041942;28;20127;-80
2023/08/05 12:35:06;;;;;;;5.25;3.40;;;20.30;62.50;;;;;;5060670;28;20055;-81
2023/08/05 12:37:35;;;;;;;4.93;3.15;;;20.30;62.70;;;;;;5024429;28;20047;-81
2023/08/05 12:40:01;;;;;;;5.43;3.53;;;20.20;63.40;;;;;;5025684;28;20048;-80
2023/08/05 12:42:27;;;;;;;7.88;4.32;;;20.20;64.40;;;;;;5027500;28;20087;-80
2023/08/05 12:44:53;;;;;;;3.80;1.98;;;20.10;65.80;;;;;;5044354;28;20543;-80
2023/08/05 12:47:20;;;;;;;4.97;2.10;;;19.70;64.10;;;;;;5025645;28;20052;-80
2023/08/05 12:49:46;;;;;;;4.63;2.35;;;19.30;64.80;;;;;;5030565;28;20048;-78
2023/08/05 12:52:12;;;;;;;5.38;2.35;;;18.90;68.20;;;;;;5023715;28;20037;-78
2023/08/05 12:54:38;;;;;;;5.18;1.70;;;18.60;71.10;;;;;;5042174;28;20097;-78